createdAt,value
2019-05-11T00:00:15.503Z,10.85
2019-05-11T00:05:21.779Z,10.97
2019-05-11T00:10:27.751Z,11.04
2019-05-11T00:15:34.645Z,11.00
2019-05-11T00:20:40.478Z,11.00
2019-05-11T00:25:46.394Z,11.02
2019-05-11T00:30:52.451Z,10.96
2019-05-11T00:35:58.527Z,11.03
2019-05-11T00:41:04.494Z,11.05
2019-05-11T00:46:15.811Z,11.09
2019-05-11T00:51:21.774Z,11.05
2019-05-11T00:56:27.849Z,10.94
2019-05-11T01:01:34.944Z,10.70
2019-05-11T01:06:41.041Z,10.37
2019-05-11T01:11:47.186Z,10.02
2019-05-11T01:16:53.970Z,9.83
2019-05-11T01:21:59.845Z,9.62
2019-05-11T01:27:05.810Z,9.45
2019-05-11T01:32:12.809Z,9.38
2019-05-11T01:37:18.775Z,9.26
2019-05-11T01:42:24.756Z,9.13
2019-05-11T01:47:31.815Z,8.98
2019-05-11T01:52:38.019Z,8.97
2019-05-11T01:57:43.897Z,9.06
2019-05-11T02:02:50.172Z,9.27
2019-05-11T02:07:56.245Z,9.45
2019-05-11T02:13:03.224Z,9.63
2019-05-11T02:18:11.054Z,9.74
2019-05-11T02:23:21.632Z,10.00
2019-05-11T02:28:37.136Z,10.23
2019-05-11T02:33:45.249Z,10.41
2019-05-11T02:38:51.140Z,10.46
2019-05-11T02:43:57.097Z,10.49
2019-05-11T02:49:03.167Z,10.46
2019-05-11T02:54:11.907Z,10.49
2019-05-11T02:59:17.977Z,10.54
2019-05-11T03:04:24.069Z,10.59
2019-05-11T03:09:30.020Z,10.59
2019-05-11T03:14:36.981Z,10.65
2019-05-11T03:19:43.700Z,10.67
2019-05-11T03:24:49.775Z,10.63
2019-05-11T03:30:00.289Z,10.71
2019-05-11T03:35:03.465Z,10.72
2019-05-11T03:40:10.011Z,10.56
2019-05-11T03:45:16.328Z,10.45
2019-05-11T03:50:22.398Z,10.45
2019-05-11T03:55:28.363Z,10.40
2019-05-11T04:00:34.339Z,10.38
2019-05-11T04:05:40.346Z,10.30
2019-05-11T04:10:46.343Z,10.26
2019-05-11T04:15:52.458Z,10.35
2019-05-11T04:21:00.165Z,10.50
2019-05-11T04:26:06.461Z,10.54
2019-05-11T04:31:12.520Z,10.55
2019-05-11T04:36:18.529Z,10.51
2019-05-11T04:41:24.565Z,10.38
2019-05-11T04:46:30.532Z,10.19
2019-05-11T04:51:36.518Z,10.09
2019-05-11T04:56:42.686Z,10.13
2019-05-11T05:01:48.769Z,10.16
2019-05-11T05:07:00.008Z,10.31
2019-05-11T05:12:02.028Z,10.49
2019-05-11T05:17:09.753Z,10.66
2019-05-11T05:22:16.329Z,11.05
2019-05-11T05:27:22.296Z,11.14
2019-05-11T05:32:28.306Z,11.02
2019-05-11T05:37:34.300Z,11.11
2019-05-11T05:42:40.309Z,11.12
2019-05-11T05:47:46.488Z,11.78
2019-05-11T05:52:52.558Z,13.08
2019-05-11T05:57:58.863Z,14.04
2019-05-11T06:03:05.116Z,14.46
2019-05-11T06:08:11.191Z,14.63
2019-05-11T06:13:17.191Z,14.72
2019-05-11T06:18:23.270Z,15.54
2019-05-11T06:23:29.621Z,15.97
2019-05-11T06:28:35.583Z,15.93
2019-05-11T06:33:41.562Z,15.98
2019-05-11T06:38:47.608Z,16.09
2019-05-11T06:44:01.643Z,16.55
2019-05-11T06:49:01.316Z,17.12
2019-05-11T06:54:07.392Z,16.11
2019-05-11T06:59:13.357Z,16.37
2019-05-11T07:04:20.648Z,16.68
2019-05-11T07:09:26.634Z,16.66
2019-05-11T07:14:32.499Z,16.70
2019-05-11T07:19:38.574Z,16.55
2019-05-11T07:24:44.972Z,16.33
2019-05-11T07:29:52.127Z,16.28
2019-05-11T07:34:58.226Z,16.26
2019-05-11T07:40:05.416Z,16.36
2019-05-11T07:45:11.836Z,16.42
2019-05-11T07:50:18.320Z,16.78
2019-05-11T07:55:24.371Z,16.82
2019-05-11T08:00:30.340Z,16.90
2019-05-11T08:05:38.473Z,17.20
2019-05-11T08:10:44.218Z,17.21
2019-05-11T08:15:50.285Z,17.21
2019-05-11T08:20:58.224Z,17.10
2019-05-11T08:26:05.199Z,17.09
2019-05-11T08:31:11.271Z,17.39
2019-05-11T08:36:18.438Z,17.82
2019-05-11T08:41:24.551Z,17.54
2019-05-11T08:46:30.527Z,17.17
2019-05-11T08:51:38.555Z,17.04
2019-05-11T08:56:44.212Z,17.00
2019-05-11T09:01:50.689Z,17.55
2019-05-11T09:06:58.709Z,17.20
2019-05-11T09:12:03.999Z,17.01
2019-05-11T09:17:09.928Z,17.45
2019-05-11T09:22:15.900Z,17.82
2019-05-11T09:27:22.381Z,17.44
2019-05-11T09:32:28.678Z,17.10
2019-05-11T09:37:34.836Z,16.72
2019-05-11T09:42:40.912Z,16.80
2019-05-11T09:47:47.938Z,17.06
2019-05-11T09:52:54.188Z,17.90
2019-05-11T09:58:00.260Z,18.27
2019-05-11T10:03:08.273Z,18.26
2019-05-11T10:08:14.152Z,17.77
2019-05-11T10:13:20.234Z,17.36
2019-05-11T10:18:28.190Z,17.56
2019-05-11T10:23:34.308Z,17.77
2019-05-11T10:28:40.894Z,18.03
2019-05-11T10:33:48.939Z,17.61
2019-05-11T10:38:54.576Z,17.27
2019-05-11T10:44:00.550Z,17.10
2019-05-11T10:49:08.032Z,16.98
2019-05-11T10:54:15.154Z,16.74
2019-05-11T10:59:21.149Z,16.78
2019-05-11T11:04:28.788Z,16.72
2019-05-11T11:09:34.825Z,17.24
2019-05-11T11:14:42.359Z,17.56
2019-05-11T11:19:48.748Z,17.74
2019-05-11T11:24:54.989Z,17.73
2019-05-11T11:30:01.498Z,18.00
2019-05-11T11:35:09.724Z,18.13
2019-05-11T11:40:17.692Z,18.17
2019-05-11T11:45:24.072Z,18.25
2019-05-11T11:50:29.946Z,17.81
2019-05-11T11:55:35.916Z,18.01
2019-05-11T12:00:41.781Z,18.00
2019-05-11T12:05:48.373Z,18.21
2019-05-11T12:10:54.549Z,18.44
2019-05-11T12:16:00.590Z,18.60
2019-05-11T12:21:08.046Z,19.04
2019-05-11T12:26:14.308Z,19.14
2019-05-11T12:31:21.093Z,19.53
2019-05-11T12:36:28.064Z,19.89
2019-05-11T12:41:34.220Z,20.22
2019-05-11T12:46:40.436Z,19.95
2019-05-11T12:51:48.594Z,19.81
2019-05-11T12:56:53.487Z,19.64
2019-05-11T13:01:59.349Z,20.15
2019-05-11T13:07:05.454Z,19.57
2019-05-11T13:12:11.416Z,18.98
2019-05-11T13:17:18.634Z,18.59
2019-05-11T13:22:24.796Z,18.48
2019-05-11T13:27:30.768Z,19.32
2019-05-11T13:32:38.487Z,19.66
2019-05-11T13:37:44.014Z,19.63
2019-05-11T13:42:50.215Z,19.77
2019-05-11T13:47:59.168Z,20.22
2019-05-11T13:53:03.825Z,20.40
2019-05-11T13:58:09.890Z,20.11
2019-05-11T14:03:18.235Z,19.84
2019-05-11T14:08:23.614Z,19.51
2019-05-11T14:13:29.731Z,19.76
2019-05-11T14:18:35.803Z,19.69
2019-05-11T14:23:41.768Z,19.78
2019-05-11T14:28:48.239Z,19.40
2019-05-11T14:33:57.915Z,19.69
2019-05-11T14:39:05.520Z,19.67
2019-05-11T14:44:11.509Z,19.75
2019-05-11T14:49:18.346Z,19.68
2019-05-11T14:54:24.458Z,19.49
2019-05-11T14:59:30.465Z,19.26
2019-05-11T15:04:37.897Z,19.03
2019-05-11T15:09:44.161Z,18.91
2019-05-11T15:14:50.142Z,18.89
2019-05-11T15:19:57.945Z,19.18
2019-05-11T15:25:04.527Z,19.62
2019-05-11T15:30:12.411Z,19.70
2019-05-11T15:35:19.102Z,19.46
2019-05-11T15:40:27.664Z,18.89
2019-05-11T15:45:33.301Z,18.43
2019-05-11T15:50:40.179Z,17.80
2019-05-11T15:55:46.767Z,17.48
2019-05-11T16:00:53.041Z,17.13
2019-05-11T16:05:59.114Z,17.03
2019-05-11T16:11:05.041Z,16.90
2019-05-11T16:16:11.051Z,16.75
2019-05-11T16:21:18.116Z,16.71
2019-05-11T16:26:24.326Z,16.71
2019-05-11T16:31:30.295Z,16.59
2019-05-11T16:36:39.002Z,16.48
2019-05-11T16:41:44.596Z,16.32
2019-05-11T16:46:50.962Z,16.35
2019-05-11T16:51:57.355Z,16.26
2019-05-11T16:57:04.573Z,16.25
2019-05-11T17:02:10.627Z,16.25
2019-05-11T17:07:17.623Z,16.15
2019-05-11T17:12:23.593Z,16.15
2019-05-11T17:17:29.900Z,16.13
2019-05-11T17:22:38.761Z,16.07
2019-05-11T17:27:43.763Z,16.05
2019-05-11T17:32:50.158Z,15.96
2019-05-11T17:37:56.721Z,15.94
2019-05-11T17:43:02.697Z,15.97
2019-05-11T17:48:08.681Z,15.89
2019-05-11T17:53:14.755Z,15.73
2019-05-11T17:58:20.813Z,15.62
2019-05-11T18:03:27.851Z,15.33
2019-05-11T18:08:34.081Z,15.19
2019-05-11T18:13:40.362Z,14.95
2019-05-11T18:18:48.335Z,14.71
2019-05-11T18:23:54.051Z,14.57
2019-05-11T18:29:00.016Z,14.46
2019-05-11T18:34:08.751Z,14.33
2019-05-11T18:39:15.067Z,14.20
2019-05-11T18:44:21.105Z,14.01
2019-05-11T18:49:28.557Z,13.81
2019-05-11T18:54:34.889Z,13.67
2019-05-11T18:59:40.758Z,13.51
2019-05-11T19:04:48.374Z,13.31
2019-05-11T19:09:54.241Z,13.29
2019-05-11T19:15:00.305Z,13.19
2019-05-11T19:20:09.965Z,13.14
2019-05-11T19:25:18.266Z,13.05
2019-05-11T19:30:23.649Z,12.89
2019-05-11T19:35:29.678Z,12.83
2019-05-11T19:40:38.402Z,12.76
2019-05-11T19:45:44.123Z,12.66
2019-05-11T19:51:03.874Z,12.53
2019-05-11T19:55:58.424Z,12.34
2019-05-11T20:01:04.600Z,12.25
2019-05-11T20:06:10.562Z,12.06
2019-05-11T20:11:18.546Z,11.90
2019-05-11T20:16:24.043Z,11.75
2019-05-11T20:21:30.152Z,11.70
2019-05-11T20:26:37.835Z,11.53
2019-05-11T20:31:43.800Z,11.57
2019-05-11T20:36:49.772Z,11.59
2019-05-11T20:41:58.083Z,11.59
2019-05-11T20:47:03.352Z,11.46
2019-05-11T20:52:09.423Z,11.52
2019-05-11T20:57:17.852Z,11.48
2019-05-11T21:02:23.005Z,11.58
2019-05-11T21:07:29.489Z,11.65
2019-05-11T21:12:37.845Z,11.63
2019-05-11T21:17:43.280Z,11.51
2019-05-11T21:22:49.861Z,11.59
2019-05-11T21:27:57.771Z,11.55
2019-05-11T21:33:03.440Z,11.43
2019-05-11T21:38:09.409Z,11.40
2019-05-11T21:43:15.383Z,11.22
2019-05-11T21:48:21.251Z,11.38
2019-05-11T21:53:28.794Z,11.40
2019-05-11T21:58:34.825Z,11.33
2019-05-11T22:03:40.800Z,11.23
2019-05-11T22:08:50.570Z,11.14
2019-05-11T22:13:57.764Z,11.10
2019-05-11T22:19:03.327Z,10.94
2019-05-11T22:24:09.304Z,10.97
2019-05-11T22:29:15.258Z,11.06
2019-05-11T22:34:21.241Z,11.04
2019-05-11T22:39:27.206Z,11.06
2019-05-11T22:44:35.795Z,10.98
2019-05-11T22:49:40.786Z,10.97
2019-05-11T22:54:48.481Z,10.91
2019-05-11T22:59:55.490Z,10.94
2019-05-11T23:05:01.472Z,10.86
2019-05-11T23:10:10.108Z,10.96
2019-05-11T23:15:17.709Z,10.97
2019-05-11T23:20:23.817Z,10.88
2019-05-11T23:25:29.855Z,10.88
2019-05-11T23:30:35.823Z,10.94
2019-05-11T23:35:42.025Z,10.88
2019-05-11T23:40:48.248Z,10.91
2019-05-11T23:45:54.563Z,10.95
2019-05-11T23:51:00.426Z,10.87
2019-05-11T23:56:06.397Z,10.84
